createdAt,value
2017-07-23T00:00:09.508Z,0
2017-07-23T00:01:10.211Z,0
2017-07-23T00:02:11.162Z,0
2017-07-23T00:03:11.868Z,0
2017-07-23T00:04:12.571Z,0
2017-07-23T00:05:13.274Z,0
2017-07-23T00:06:13.979Z,0
2017-07-23T00:07:14.932Z,0
2017-07-23T00:08:15.638Z,0
2017-07-23T00:09:16.341Z,0
2017-07-23T00:10:17.044Z,0
2017-07-23T00:11:17.746Z,0
2017-07-23T00:12:18.696Z,0
2017-07-23T00:13:19.399Z,0
2017-07-23T00:14:20.101Z,0
2017-07-23T00:15:20.803Z,0
2017-07-23T00:16:21.508Z,0
2017-07-23T00:17:22.459Z,0
2017-07-23T00:18:23.157Z,0
2017-07-23T00:19:23.860Z,0
2017-07-23T00:20:24.565Z,0
2017-07-23T00:21:25.268Z,0
2017-07-23T00:22:26.221Z,0
2017-07-23T00:23:26.928Z,0
2017-07-23T00:24:27.630Z,0
2017-07-23T00:25:28.329Z,0
2017-07-23T00:26:29.031Z,0
2017-07-23T00:27:29.985Z,0
2017-07-23T00:28:30.687Z,0
2017-07-23T00:29:31.393Z,0
2017-07-23T00:30:32.095Z,0
2017-07-23T00:31:32.794Z,0
2017-07-23T00:32:33.746Z,0
2017-07-23T00:33:34.452Z,0
2017-07-23T00:34:35.157Z,0
2017-07-23T00:35:35.860Z,0
2017-07-23T00:36:36.562Z,0
2017-07-23T00:37:37.514Z,0
2017-07-23T00:38:38.216Z,0
2017-07-23T00:39:38.937Z,0
2017-07-23T00:40:39.639Z,0
2017-07-23T00:41:40.341Z,0
2017-07-23T00:42:41.295Z,0
2017-07-23T00:43:41.996Z,0
2017-07-23T00:44:42.703Z,0
2017-07-23T00:45:43.403Z,0
2017-07-23T00:46:44.103Z,0
2017-07-23T00:47:45.050Z,0
2017-07-23T00:48:45.756Z,0
2017-07-23T00:49:46.450Z,0
2017-07-23T00:50:47.151Z,0
2017-07-23T00:51:47.861Z,0
2017-07-23T00:52:48.562Z,0
2017-07-23T00:53:49.264Z,0
2017-07-23T00:54:49.964Z,0
2017-07-23T00:55:50.667Z,0
2017-07-23T00:56:51.364Z,0
2017-07-23T00:57:52.312Z,0
2017-07-23T00:58:53.014Z,0
2017-07-23T00:59:53.713Z,0
2017-07-23T01:00:54.410Z,0
2017-07-23T01:01:55.120Z,0
2017-07-23T01:02:56.073Z,0
2017-07-23T01:03:56.772Z,0
2017-07-23T01:04:57.473Z,0
2017-07-23T01:05:58.170Z,0
2017-07-23T01:06:58.866Z,0
2017-07-23T01:07:59.836Z,0
2017-07-23T01:09:00.540Z,0
2017-07-23T01:10:01.251Z,0
2017-07-23T01:11:01.954Z,0
2017-07-23T01:12:02.657Z,0
2017-07-23T01:13:03.610Z,0
2017-07-23T01:14:04.313Z,0
2017-07-23T01:15:05.018Z,0
2017-07-23T01:16:05.720Z,0
2017-07-23T01:17:06.424Z,0
2017-07-23T01:18:07.376Z,0
2017-07-23T01:19:08.073Z,0
2017-07-23T01:20:08.771Z,0
2017-07-23T01:21:09.473Z,0
2017-07-23T01:22:10.175Z,0
2017-07-23T01:23:11.128Z,0
2017-07-23T01:24:11.825Z,0
2017-07-23T01:25:12.532Z,0
2017-07-23T01:26:13.230Z,0
2017-07-23T01:27:13.929Z,0
2017-07-23T01:28:14.880Z,0
2017-07-23T01:29:15.578Z,0
2017-07-23T01:30:16.280Z,0
2017-07-23T01:31:16.982Z,0
2017-07-23T01:32:17.677Z,0
2017-07-23T01:33:18.376Z,0
2017-07-23T01:34:19.072Z,0
2017-07-23T01:35:19.772Z,0
2017-07-23T01:36:20.485Z,0
2017-07-23T01:37:21.186Z,0
2017-07-23T01:38:22.138Z,0
2017-07-23T01:39:22.846Z,0
2017-07-23T01:40:23.548Z,0
2017-07-23T01:41:24.251Z,0
2017-07-23T01:42:24.970Z,0
2017-07-23T01:43:25.926Z,0
2017-07-23T01:44:26.626Z,0
2017-07-23T01:45:27.327Z,0
2017-07-23T01:46:28.029Z,0
2017-07-23T01:47:28.736Z,0
2017-07-23T01:48:29.688Z,0
2017-07-23T01:49:30.389Z,0
2017-07-23T01:50:31.088Z,0
2017-07-23T01:51:31.791Z,0
2017-07-23T01:52:32.489Z,0
2017-07-23T01:53:33.441Z,0
2017-07-23T01:54:34.143Z,0
2017-07-23T01:55:34.846Z,0
2017-07-23T01:56:35.548Z,0
2017-07-23T01:57:36.242Z,0
2017-07-23T01:58:37.195Z,0
2017-07-23T01:59:37.893Z,0
2017-07-23T02:00:38.595Z,0
2017-07-23T02:01:39.297Z,0
2017-07-23T02:02:39.995Z,0
2017-07-23T02:03:40.695Z,0
2017-07-23T02:04:41.393Z,0
2017-07-23T02:05:42.094Z,0
2017-07-23T02:06:42.796Z,0
2017-07-23T02:07:43.493Z,0
2017-07-23T02:08:44.446Z,0
2017-07-23T02:09:45.146Z,0
2017-07-23T02:10:45.849Z,0
2017-07-23T02:11:46.551Z,0
2017-07-23T02:12:47.253Z,0
2017-07-23T02:13:47.953Z,0
2017-07-23T02:14:48.656Z,0
2017-07-23T02:15:49.355Z,0
2017-07-23T02:16:50.054Z,0
2017-07-23T02:17:50.754Z,0
2017-07-23T02:18:51.710Z,0
2017-07-23T02:19:52.415Z,0
2017-07-23T02:20:53.115Z,0
2017-07-23T02:21:53.814Z,0
2017-07-23T02:22:54.515Z,0
2017-07-23T02:23:55.468Z,0
2017-07-23T02:24:56.170Z,0
2017-07-23T02:25:56.871Z,0
2017-07-23T02:26:57.574Z,0
2017-07-23T02:27:58.271Z,0
2017-07-23T02:28:59.216Z,0
2017-07-23T02:29:59.920Z,0
2017-07-23T02:31:00.623Z,0
2017-07-23T02:32:01.321Z,0
2017-07-23T02:33:02.029Z,0
2017-07-23T02:34:02.980Z,0
2017-07-23T02:35:03.681Z,0
2017-07-23T02:36:04.379Z,0
2017-07-23T02:37:05.082Z,0
2017-07-23T02:38:05.785Z,0
2017-07-23T02:39:06.486Z,0
2017-07-23T02:40:07.188Z,0
2017-07-23T02:41:07.889Z,0
2017-07-23T02:42:08.591Z,0
2017-07-23T02:43:09.297Z,0
2017-07-23T02:44:10.248Z,0
2017-07-23T02:45:10.946Z,0
2017-07-23T02:46:11.650Z,0
2017-07-23T02:47:12.358Z,0
2017-07-23T02:48:13.059Z,0
2017-07-23T02:49:14.011Z,0
2017-07-23T02:50:14.713Z,0
2017-07-23T02:51:15.426Z,0
2017-07-23T02:52:16.133Z,0
2017-07-23T02:53:16.836Z,0
2017-07-23T02:54:17.787Z,0
2017-07-23T02:55:18.490Z,0
2017-07-23T02:56:19.187Z,0
2017-07-23T02:57:19.891Z,0
2017-07-23T02:58:20.592Z,0
2017-07-23T02:59:21.545Z,0
2017-07-23T03:00:22.250Z,0
2017-07-23T03:01:22.956Z,0
2017-07-23T03:02:23.658Z,0
2017-07-23T03:03:24.364Z,0
2017-07-23T03:04:25.257Z,0
2017-07-23T03:05:26.018Z,0
2017-07-23T03:06:26.720Z,0
2017-07-23T03:07:27.420Z,0
2017-07-23T03:08:28.121Z,0
2017-07-23T03:09:29.073Z,0
2017-07-23T03:10:29.772Z,0
2017-07-23T03:11:30.470Z,0
2017-07-23T03:12:31.169Z,0
2017-07-23T03:13:31.880Z,0
2017-07-23T03:14:32.831Z,0
2017-07-23T03:15:33.532Z,0
2017-07-23T03:16:34.234Z,0
2017-07-23T03:17:34.938Z,0
2017-07-23T03:18:35.640Z,0
2017-07-23T03:19:36.594Z,0
2017-07-23T03:20:37.296Z,0
2017-07-23T03:21:38.003Z,0
2017-07-23T03:22:38.707Z,0
2017-07-23T03:23:39.417Z,0
2017-07-23T03:24:40.369Z,4
2017-07-23T03:25:41.070Z,4
2017-07-23T03:26:41.774Z,4
2017-07-23T03:27:42.477Z,4
2017-07-23T03:28:43.182Z,0
2017-07-23T03:29:44.183Z,4
2017-07-23T03:30:44.884Z,4
2017-07-23T03:31:45.583Z,8
2017-07-23T03:32:46.285Z,8
2017-07-23T03:33:46.983Z,8
2017-07-23T03:34:47.931Z,8
2017-07-23T03:35:48.629Z,8
2017-07-23T03:36:49.331Z,8
2017-07-23T03:37:50.058Z,12
2017-07-23T03:38:50.758Z,12
2017-07-23T03:39:51.707Z,8
2017-07-23T03:40:52.412Z,12
2017-07-23T03:41:53.118Z,12
2017-07-23T03:42:53.824Z,12
2017-07-23T03:43:54.526Z,16
2017-07-23T03:44:55.226Z,12
2017-07-23T03:45:55.926Z,12
2017-07-23T03:46:56.634Z,12
2017-07-23T03:47:57.334Z,12
2017-07-23T03:48:58.034Z,12
2017-07-23T03:49:58.986Z,16
2017-07-23T03:50:59.688Z,16
2017-07-23T03:52:00.391Z,20
2017-07-23T03:53:01.093Z,20
2017-07-23T03:54:01.804Z,24
2017-07-23T03:55:02.756Z,24
2017-07-23T03:56:03.458Z,28
2017-07-23T03:57:04.152Z,28
2017-07-23T03:58:04.856Z,32
2017-07-23T03:59:05.558Z,36
2017-07-23T04:00:06.508Z,36
2017-07-23T04:01:07.210Z,44
2017-07-23T04:02:07.910Z,48
2017-07-23T04:03:08.613Z,48
2017-07-23T04:04:09.314Z,52
2017-07-23T04:05:10.268Z,56
2017-07-23T04:06:10.966Z,60
2017-07-23T04:07:11.668Z,64
2017-07-23T04:08:12.370Z,64
2017-07-23T04:09:13.074Z,68
2017-07-23T04:10:13.778Z,68
2017-07-23T04:11:14.480Z,68
2017-07-23T04:12:15.182Z,64
2017-07-23T04:13:15.893Z,64
2017-07-23T04:14:16.601Z,64
2017-07-23T04:15:17.550Z,60
2017-07-23T04:16:18.247Z,60
2017-07-23T04:17:18.948Z,60
2017-07-23T04:18:19.651Z,56
2017-07-23T04:19:20.354Z,52
2017-07-23T04:20:21.307Z,60
2017-07-23T04:21:22.005Z,60
2017-07-23T04:22:22.706Z,68
2017-07-23T04:23:23.408Z,76
2017-07-23T04:24:24.110Z,80
2017-07-23T04:25:25.061Z,92
2017-07-23T04:26:25.765Z,104
2017-07-23T04:27:26.468Z,128
2017-07-23T04:28:27.168Z,136
2017-07-23T04:29:27.871Z,152
2017-07-23T04:30:28.821Z,160
2017-07-23T04:31:29.525Z,188
2017-07-23T04:32:30.229Z,220
2017-07-23T04:33:30.939Z,240
2017-07-23T04:34:31.641Z,252
2017-07-23T04:35:32.595Z,276
2017-07-23T04:36:33.300Z,304
2017-07-23T04:37:34.011Z,324
2017-07-23T04:38:34.718Z,388
2017-07-23T04:39:35.422Z,512
2017-07-23T04:40:36.373Z,684
2017-07-23T04:41:37.077Z,832
2017-07-23T04:42:37.782Z,876
2017-07-23T04:43:38.484Z,864
2017-07-23T04:44:39.186Z,816
2017-07-23T04:45:40.135Z,764
2017-07-23T04:46:40.838Z,712
2017-07-23T04:47:41.546Z,688
2017-07-23T04:48:42.258Z,696
2017-07-23T04:49:42.958Z,736
2017-07-23T04:50:43.911Z,768
2017-07-23T04:51:44.615Z,684
2017-07-23T04:52:45.320Z,616
2017-07-23T04:53:46.025Z,488
2017-07-23T04:54:46.728Z,396
2017-07-23T04:55:47.680Z,360
2017-07-23T04:56:48.387Z,404
2017-07-23T04:57:49.088Z,508
2017-07-23T04:58:49.788Z,624
2017-07-23T04:59:50.490Z,688
2017-07-23T05:00:51.444Z,712
2017-07-23T05:01:52.151Z,848
2017-07-23T05:02:52.853Z,1048
2017-07-23T05:03:53.557Z,992
2017-07-23T05:04:54.261Z,964
2017-07-23T05:05:55.214Z,1044
2017-07-23T05:06:55.923Z,1232
2017-07-23T05:07:56.628Z,1472
2017-07-23T05:08:57.350Z,1956
2017-07-23T05:09:58.057Z,2004
2017-07-23T05:10:59.014Z,2156
2017-07-23T05:11:59.721Z,2360
2017-07-23T05:13:00.423Z,2508
2017-07-23T05:14:01.128Z,2600
2017-07-23T05:15:01.837Z,2408
2017-07-23T05:16:02.549Z,1988
2017-07-23T05:17:03.251Z,1584
2017-07-23T05:18:03.958Z,1400
2017-07-23T05:19:04.663Z,1288
2017-07-23T05:20:05.365Z,1332
2017-07-23T05:21:06.320Z,1412
2017-07-23T05:22:07.024Z,1616
2017-07-23T05:23:07.731Z,1820
2017-07-23T05:24:08.442Z,1872
2017-07-23T05:25:09.149Z,1944
2017-07-23T05:26:10.107Z,2076
2017-07-23T05:27:10.812Z,2124
2017-07-23T05:28:11.515Z,2116
2017-07-23T05:29:12.222Z,2104
2017-07-23T05:30:12.928Z,2068
2017-07-23T05:31:13.887Z,2036
2017-07-23T05:32:14.592Z,1968
2017-07-23T05:33:15.299Z,2028
2017-07-23T05:34:16.004Z,2176
2017-07-23T05:35:16.713Z,2196
2017-07-23T05:36:17.674Z,2136
2017-07-23T05:37:18.390Z,2072
2017-07-23T05:38:19.099Z,2088
2017-07-23T05:39:19.803Z,2108
2017-07-23T05:40:20.513Z,2096
2017-07-23T05:41:21.225Z,2120
2017-07-23T05:42:21.932Z,2164
2017-07-23T05:43:22.639Z,2220
2017-07-23T05:44:23.343Z,2292
2017-07-23T05:45:24.049Z,2368
2017-07-23T05:46:25.012Z,2460
2017-07-23T05:47:25.719Z,2564
2017-07-23T05:48:26.420Z,2688
2017-07-23T05:49:27.126Z,2896
2017-07-23T05:50:27.836Z,3152
2017-07-23T05:51:28.794Z,3544
2017-07-23T05:52:29.499Z,3608
2017-07-23T05:53:30.209Z,3540
2017-07-23T05:54:30.916Z,3604
2017-07-23T05:55:31.627Z,3608
2017-07-23T05:56:32.578Z,3652
2017-07-23T05:57:33.287Z,3644
2017-07-23T05:58:33.998Z,3764
2017-07-23T05:59:34.700Z,3892
2017-07-23T06:00:35.407Z,3916
2017-07-23T06:01:36.361Z,3860
2017-07-23T06:02:37.080Z,3640
2017-07-23T06:03:37.781Z,3732
2017-07-23T06:04:38.483Z,3856
2017-07-23T06:05:39.184Z,3712
2017-07-23T06:06:40.142Z,3700
2017-07-23T06:07:40.844Z,3456
2017-07-23T06:08:41.552Z,3088
2017-07-23T06:09:42.258Z,2932
2017-07-23T06:10:42.970Z,2612
2017-07-23T06:11:43.929Z,2612
2017-07-23T06:12:44.634Z,2840
2017-07-23T06:13:45.339Z,2800
2017-07-23T06:14:46.054Z,3000
2017-07-23T06:15:46.769Z,2772
2017-07-23T06:16:47.720Z,2776
2017-07-23T06:17:48.433Z,2956
2017-07-23T06:18:49.141Z,2808
2017-07-23T06:19:49.849Z,3116
2017-07-23T06:20:50.558Z,2968
2017-07-23T06:21:51.514Z,2752
2017-07-23T06:22:52.220Z,2804
2017-07-23T06:23:52.926Z,3408
2017-07-23T06:24:53.636Z,3492
2017-07-23T06:25:54.343Z,3656
2017-07-23T06:26:55.300Z,4052
2017-07-23T06:27:56.012Z,4192
2017-07-23T06:28:56.732Z,4032
2017-07-23T06:29:57.447Z,4136
2017-07-23T06:30:58.157Z,4308
2017-07-23T06:31:59.115Z,4092
2017-07-23T06:32:59.818Z,3692
2017-07-23T06:34:00.535Z,3440
2017-07-23T06:35:01.256Z,3364
2017-07-23T06:36:01.961Z,3284
2017-07-23T06:37:02.913Z,2832
2017-07-23T06:38:03.616Z,2380
2017-07-23T06:39:04.322Z,3012
2017-07-23T06:40:05.028Z,2924
2017-07-23T06:41:05.730Z,2856
2017-07-23T06:42:06.683Z,2760
2017-07-23T06:43:07.385Z,2832
2017-07-23T06:44:08.100Z,2800
2017-07-23T06:45:08.806Z,2836
2017-07-23T06:46:09.509Z,2804
2017-07-23T06:47:10.461Z,2672
2017-07-23T06:48:11.168Z,2400
2017-07-23T06:49:11.872Z,2400
2017-07-23T06:50:12.583Z,2100
2017-07-23T06:51:13.293Z,2372
2017-07-23T06:52:14.247Z,3324
2017-07-23T06:53:14.958Z,3516
2017-07-23T06:54:15.663Z,4308
2017-07-23T06:55:16.370Z,5168
2017-07-23T06:56:17.074Z,5796
2017-07-23T06:57:18.029Z,5508
2017-07-23T06:58:18.736Z,4864
2017-07-23T06:59:19.442Z,4576
2017-07-23T07:00:20.144Z,4540
2017-07-23T07:01:20.845Z,4372
2017-07-23T07:02:21.799Z,4044
2017-07-23T07:03:22.507Z,3600
2017-07-23T07:04:23.218Z,2460
2017-07-23T07:05:23.920Z,1276
2017-07-23T07:06:24.632Z,900
2017-07-23T07:07:25.585Z,948
2017-07-23T07:08:26.293Z,1280
2017-07-23T07:09:27.001Z,2072
2017-07-23T07:10:27.705Z,2296
2017-07-23T07:11:28.423Z,2608
2017-07-23T07:12:29.133Z,3548
2017-07-23T07:13:29.855Z,3920
2017-07-23T07:14:30.563Z,4136
2017-07-23T07:15:31.271Z,3928
2017-07-23T07:16:31.975Z,3152
2017-07-23T07:17:32.929Z,2688
2017-07-23T07:18:33.635Z,2992
2017-07-23T07:19:34.342Z,3552
2017-07-23T07:20:35.052Z,3888
2017-07-23T07:21:35.762Z,3420
2017-07-23T07:22:36.725Z,3304
2017-07-23T07:23:37.445Z,3960
2017-07-23T07:24:38.153Z,4948
2017-07-23T07:25:38.863Z,5880
2017-07-23T07:26:39.569Z,5732
2017-07-23T07:27:40.527Z,4992
2017-07-23T07:28:41.234Z,4560
2017-07-23T07:29:41.945Z,4276
2017-07-23T07:30:42.649Z,4280
2017-07-23T07:31:43.358Z,4972
2017-07-23T07:32:44.313Z,5344
2017-07-23T07:33:45.018Z,5328
2017-07-23T07:34:45.726Z,5480
2017-07-23T07:35:46.438Z,5668
2017-07-23T07:36:47.144Z,6088
2017-07-23T07:37:48.100Z,5584
2017-07-23T07:38:48.805Z,5596
2017-07-23T07:39:49.509Z,6384
2017-07-23T07:40:50.216Z,7312
2017-07-23T07:41:50.922Z,7344
2017-07-23T07:42:51.884Z,6016
2017-07-23T07:43:52.592Z,4500
2017-07-23T07:44:53.297Z,4124
2017-07-23T07:45:54.003Z,4832
2017-07-23T07:46:54.725Z,4820
2017-07-23T07:47:55.682Z,4208
2017-07-23T07:48:56.392Z,4184
2017-07-23T07:49:57.091Z,4516
2017-07-23T07:50:57.798Z,5064
2017-07-23T07:51:58.501Z,6564
2017-07-23T07:52:59.461Z,7040
2017-07-23T07:54:00.170Z,7360
2017-07-23T07:55:00.879Z,7328
2017-07-23T07:56:01.583Z,6700
2017-07-23T07:57:02.292Z,6180
2017-07-23T07:58:03.252Z,5160
2017-07-23T07:59:03.953Z,4152
2017-07-23T08:00:04.668Z,3980
2017-07-23T08:01:05.376Z,4416
2017-07-23T08:02:06.080Z,4912
2017-07-23T08:03:07.038Z,5712
2017-07-23T08:04:07.743Z,5992
2017-07-23T08:05:08.457Z,6296
2017-07-23T08:06:09.161Z,6212
2017-07-23T08:07:09.873Z,6212
2017-07-23T08:08:10.832Z,5940
2017-07-23T08:09:11.545Z,5872
2017-07-23T08:10:12.250Z,5992
2017-07-23T08:11:12.960Z,6172
2017-07-23T08:12:13.667Z,6284
2017-07-23T08:13:14.625Z,5916
2017-07-23T08:14:15.331Z,5788
2017-07-23T08:15:16.038Z,5948
2017-07-23T08:16:16.751Z,6248
2017-07-23T08:17:17.458Z,6512
2017-07-23T08:18:18.418Z,6616
2017-07-23T08:19:19.120Z,6640
2017-07-23T08:20:19.827Z,6824
2017-07-23T08:21:20.550Z,7020
2017-07-23T08:22:21.259Z,6856
2017-07-23T08:23:22.212Z,6800
2017-07-23T08:24:22.934Z,6612
2017-07-23T08:25:23.648Z,6084
2017-07-23T08:26:24.356Z,5636
2017-07-23T08:27:25.062Z,5648
2017-07-23T08:28:25.769Z,5344
2017-07-23T08:29:26.474Z,5908
2017-07-23T08:30:27.180Z,6248
2017-07-23T08:31:27.888Z,6404
2017-07-23T08:32:28.593Z,6720
2017-07-23T08:33:29.549Z,6764
2017-07-23T08:34:30.258Z,6848
2017-07-23T08:35:30.966Z,6992
2017-07-23T08:36:31.672Z,6876
2017-07-23T08:37:32.380Z,7092
2017-07-23T08:38:33.342Z,7040
2017-07-23T08:39:34.053Z,7140
2017-07-23T08:40:34.760Z,7144
2017-07-23T08:41:35.470Z,7212
2017-07-23T08:42:36.180Z,7200
2017-07-23T08:43:37.138Z,6920
2017-07-23T08:44:37.846Z,6900
2017-07-23T08:45:38.546Z,7052
2017-07-23T08:46:39.256Z,7124
2017-07-23T08:47:39.964Z,7092
2017-07-23T08:48:40.672Z,7212
2017-07-23T08:49:41.383Z,7332
2017-07-23T08:50:42.002Z,7312
2017-07-23T08:51:42.790Z,7108
2017-07-23T08:52:43.499Z,7140
2017-07-23T08:53:44.454Z,7084
2017-07-23T08:54:45.161Z,7040
2017-07-23T08:55:45.867Z,7016
2017-07-23T08:56:46.586Z,6940
2017-07-23T08:57:47.293Z,6848
2017-07-23T08:58:48.251Z,6980
2017-07-23T08:59:48.960Z,7184
2017-07-23T09:00:49.671Z,7684
2017-07-23T09:01:50.380Z,7844
2017-07-23T09:02:51.085Z,8024
2017-07-23T09:03:52.041Z,7992
2017-07-23T09:04:52.752Z,8236
2017-07-23T09:05:53.470Z,7488
2017-07-23T09:06:54.174Z,7244
2017-07-23T09:07:54.880Z,7500
2017-07-23T09:08:55.836Z,7728
2017-07-23T09:09:56.541Z,7632
2017-07-23T09:10:57.255Z,7432
2017-07-23T09:11:57.963Z,6748
2017-07-23T09:12:58.672Z,6212
2017-07-23T09:13:59.634Z,6068
2017-07-23T09:15:00.343Z,6692
2017-07-23T09:16:01.074Z,7172
2017-07-23T09:17:01.783Z,7440
2017-07-23T09:18:02.499Z,7996
2017-07-23T09:19:03.457Z,9620
2017-07-23T09:20:04.165Z,9684
2017-07-23T09:21:04.874Z,9944
2017-07-23T09:22:05.598Z,10152
2017-07-23T09:23:06.303Z,9264
2017-07-23T09:24:07.256Z,8212
2017-07-23T09:25:07.983Z,7996
2017-07-23T09:26:08.692Z,7868
2017-07-23T09:27:09.405Z,8748
2017-07-23T09:28:10.115Z,9196
2017-07-23T09:29:11.070Z,9000
2017-07-23T09:30:11.771Z,8100
2017-07-23T09:31:12.483Z,6644
2017-07-23T09:32:13.190Z,5744
2017-07-23T09:33:13.894Z,5716
2017-07-23T09:34:14.607Z,6264
2017-07-23T09:35:15.315Z,7060
2017-07-23T09:36:16.028Z,8072
2017-07-23T09:37:16.743Z,8584
2017-07-23T09:38:17.451Z,9192
2017-07-23T09:39:18.414Z,9144
2017-07-23T09:40:19.127Z,9964
2017-07-23T09:41:19.834Z,9532
2017-07-23T09:42:20.549Z,9100
2017-07-23T09:43:21.257Z,9516
2017-07-23T09:44:22.222Z,9108
2017-07-23T09:45:22.928Z,10520
2017-07-23T09:46:23.632Z,9676
2017-07-23T09:47:24.349Z,9692
2017-07-23T09:48:25.061Z,10412
2017-07-23T09:49:26.016Z,9652
2017-07-23T09:50:26.725Z,9728
2017-07-23T09:51:27.433Z,9308
2017-07-23T09:52:28.137Z,8656
2017-07-23T09:53:28.842Z,10220
2017-07-23T09:54:29.803Z,11040
2017-07-23T09:55:30.513Z,12188
2017-07-23T09:56:31.222Z,10688
2017-07-23T09:57:31.936Z,9700
2017-07-23T09:58:32.644Z,9340
2017-07-23T09:59:33.599Z,9292
2017-07-23T10:00:34.308Z,10744
2017-07-23T10:01:35.027Z,10556
2017-07-23T10:02:35.738Z,9372
2017-07-23T10:03:36.443Z,6608
2017-07-23T10:04:37.405Z,4520
2017-07-23T10:05:38.112Z,4984
2017-07-23T10:06:38.814Z,5876
2017-07-23T10:07:39.526Z,5460
2017-07-23T10:08:40.233Z,4840
2017-07-23T10:09:41.188Z,3980
2017-07-23T10:10:41.893Z,3140
2017-07-23T10:11:42.605Z,2608
2017-07-23T10:12:43.315Z,2408
2017-07-23T10:13:44.028Z,2868
2017-07-23T10:14:44.994Z,4012
2017-07-23T10:15:45.719Z,4648
2017-07-23T10:16:46.424Z,4548
2017-07-23T10:17:47.127Z,3976
2017-07-23T10:18:47.844Z,4300
2017-07-23T10:19:48.801Z,5172
2017-07-23T10:20:49.509Z,6532
2017-07-23T10:21:50.217Z,7288
2017-07-23T10:22:50.924Z,5964
2017-07-23T10:23:51.630Z,5452
2017-07-23T10:24:52.358Z,5624
2017-07-23T10:25:53.088Z,5040
2017-07-23T10:26:53.802Z,5244
2017-07-23T10:27:54.512Z,6112
2017-07-23T10:28:55.220Z,6928
2017-07-23T10:29:56.174Z,8060
2017-07-23T10:30:56.881Z,9164
2017-07-23T10:31:57.596Z,8108
2017-07-23T10:32:58.309Z,7036
2017-07-23T10:33:59.020Z,7680
2017-07-23T10:34:59.991Z,8024
2017-07-23T10:36:00.694Z,7644
2017-07-23T10:37:01.402Z,6612
2017-07-23T10:38:02.110Z,6020
2017-07-23T10:39:02.818Z,6160
2017-07-23T10:40:03.788Z,5924
2017-07-23T10:41:04.498Z,5260
2017-07-23T10:42:05.205Z,5316
2017-07-23T10:43:05.912Z,6244
2017-07-23T10:44:06.628Z,7432
2017-07-23T10:45:07.335Z,8352
2017-07-23T10:46:08.048Z,8164
2017-07-23T10:47:08.758Z,8988
2017-07-23T10:48:09.467Z,10036
2017-07-23T10:49:10.176Z,11888
2017-07-23T10:50:11.136Z,12916
2017-07-23T10:51:11.843Z,12632
2017-07-23T10:52:12.550Z,11128
2017-07-23T10:53:13.253Z,13212
2017-07-23T10:54:13.971Z,11728
2017-07-23T10:55:14.929Z,11024
2017-07-23T10:56:15.635Z,11648
2017-07-23T10:57:16.351Z,14280
2017-07-23T10:58:17.059Z,14420
2017-07-23T10:59:17.767Z,12212
2017-07-23T11:00:18.474Z,13352
2017-07-23T11:01:19.181Z,12952
2017-07-23T11:02:19.887Z,11848
2017-07-23T11:03:20.599Z,13116
2017-07-23T11:04:21.305Z,14164
2017-07-23T11:05:22.268Z,12288
2017-07-23T11:06:22.979Z,10664
2017-07-23T11:07:23.689Z,11144
2017-07-23T11:08:24.401Z,9784
2017-07-23T11:09:25.107Z,8124
2017-07-23T11:10:26.070Z,9124
2017-07-23T11:11:26.776Z,10652
2017-07-23T11:12:27.492Z,8832
2017-07-23T11:13:28.199Z,8276
2017-07-23T11:14:28.915Z,7676
2017-07-23T11:15:29.875Z,7428
2017-07-23T11:16:30.603Z,6368
2017-07-23T11:17:31.322Z,6088
2017-07-23T11:18:32.037Z,7468
2017-07-23T11:19:32.747Z,8440
2017-07-23T11:20:33.712Z,8016
2017-07-23T11:21:34.421Z,8224
2017-07-23T11:22:35.126Z,9164
2017-07-23T11:23:35.834Z,9596
2017-07-23T11:24:36.539Z,9440
2017-07-23T11:25:37.499Z,8808
2017-07-23T11:26:38.213Z,9276
2017-07-23T11:27:38.927Z,10268
2017-07-23T11:28:39.634Z,9712
2017-07-23T11:29:40.339Z,9172
2017-07-23T11:30:41.300Z,8320
2017-07-23T11:31:42.025Z,7712
2017-07-23T11:32:42.742Z,7780
2017-07-23T11:33:43.452Z,8956
2017-07-23T11:34:44.159Z,11228
2017-07-23T11:35:45.119Z,11804
2017-07-23T11:36:45.827Z,11584
2017-07-23T11:37:46.553Z,12276
2017-07-23T11:38:47.264Z,12164
2017-07-23T11:39:47.994Z,10468
2017-07-23T11:40:48.962Z,10900
2017-07-23T11:41:49.670Z,10300
2017-07-23T11:42:50.391Z,10916
2017-07-23T11:43:51.104Z,12812
2017-07-23T11:44:51.834Z,13068
2017-07-23T11:45:52.810Z,13964
2017-07-23T11:46:53.519Z,12396
2017-07-23T11:47:54.232Z,11340
2017-07-23T11:48:54.943Z,11136
2017-07-23T11:49:55.680Z,11004
2017-07-23T11:50:56.650Z,10592
2017-07-23T11:51:57.364Z,10436
2017-07-23T11:52:58.071Z,9548
2017-07-23T11:53:58.781Z,8208
2017-07-23T11:54:59.488Z,8228
2017-07-23T11:56:00.447Z,7488
2017-07-23T11:57:01.156Z,7712
2017-07-23T11:58:01.864Z,6560
2017-07-23T11:59:02.576Z,5492
2017-07-23T12:00:03.284Z,4620
2017-07-23T12:01:04.245Z,3848
2017-07-23T12:02:04.953Z,3212
2017-07-23T12:03:05.661Z,3004
2017-07-23T12:04:06.377Z,3092
2017-07-23T12:05:07.082Z,3144
2017-07-23T12:06:08.044Z,3140
2017-07-23T12:07:08.761Z,3144
2017-07-23T12:08:09.466Z,3096
2017-07-23T12:09:10.183Z,2960
2017-07-23T12:10:10.896Z,3020
2017-07-23T12:11:11.856Z,3000
2017-07-23T12:12:12.564Z,3268
2017-07-23T12:13:13.269Z,3712
2017-07-23T12:14:13.991Z,3748
2017-07-23T12:15:14.716Z,3956
2017-07-23T12:16:15.670Z,4756
2017-07-23T12:17:16.376Z,4804
2017-07-23T12:18:17.084Z,4016
2017-07-23T12:19:17.799Z,3540
2017-07-23T12:20:18.511Z,3284
2017-07-23T12:21:19.472Z,3104
2017-07-23T12:22:20.182Z,2828
2017-07-23T12:23:20.891Z,2884
2017-07-23T12:24:21.599Z,3152
2017-07-23T12:25:22.304Z,3232
2017-07-23T12:26:23.257Z,3156
2017-07-23T12:27:23.962Z,3288
2017-07-23T12:28:24.674Z,3744
2017-07-23T12:29:25.381Z,4172
2017-07-23T12:30:26.088Z,4464
2017-07-23T12:31:27.041Z,4664
2017-07-23T12:32:27.752Z,4808
2017-07-23T12:33:28.459Z,5772
2017-07-23T12:34:29.179Z,9368
2017-07-23T12:35:29.899Z,13184
2017-07-23T12:36:30.625Z,14640
2017-07-23T12:37:31.333Z,13320
2017-07-23T12:38:32.040Z,15256
2017-07-23T12:39:32.750Z,16576
2017-07-23T12:40:33.459Z,17504
2017-07-23T12:41:34.424Z,20224
2017-07-23T12:42:35.135Z,16992
2017-07-23T12:43:35.843Z,18880
2017-07-23T12:44:36.557Z,18016
2017-07-23T12:45:37.263Z,17536
2017-07-23T12:46:38.219Z,21984
2017-07-23T12:47:38.927Z,20128
2017-07-23T12:48:39.635Z,16416
2017-07-23T12:49:40.343Z,17248
2017-07-23T12:50:41.056Z,16416
2017-07-23T12:51:42.014Z,19008
2017-07-23T12:52:42.722Z,18592
2017-07-23T12:53:43.432Z,17184
2017-07-23T12:54:44.144Z,15968
2017-07-23T12:55:44.857Z,15536
2017-07-23T12:56:45.827Z,14492
2017-07-23T12:57:46.534Z,14808
2017-07-23T12:58:47.241Z,15876
2017-07-23T12:59:47.950Z,15680
2017-07-23T13:00:48.669Z,15484
2017-07-23T13:01:49.377Z,17120
2017-07-23T13:02:50.088Z,18688
2017-07-23T13:03:50.804Z,18880
2017-07-23T13:04:51.521Z,18400
2017-07-23T13:05:52.229Z,12428
2017-07-23T13:06:52.935Z,9500
2017-07-23T13:07:53.657Z,9408
2017-07-23T13:08:54.305Z,11644
2017-07-23T13:09:55.086Z,14820
2017-07-23T13:10:55.798Z,17568
2017-07-23T13:11:56.507Z,16224
2017-07-23T13:12:57.218Z,15680
2017-07-23T13:13:57.932Z,16168
2017-07-23T13:14:58.649Z,15504
2017-07-23T13:15:59.367Z,18592
2017-07-23T13:17:00.078Z,17184
2017-07-23T13:18:00.791Z,18368
2017-07-23T13:19:01.755Z,18848
2017-07-23T13:20:02.471Z,18272
2017-07-23T13:21:03.180Z,14968
2017-07-23T13:22:03.889Z,16572
2017-07-23T13:23:04.602Z,16896
2017-07-23T13:24:05.571Z,16504
2017-07-23T13:25:06.285Z,16224
2017-07-23T13:26:06.994Z,15676
2017-07-23T13:27:07.703Z,16960
2017-07-23T13:28:08.416Z,18464
2017-07-23T13:29:09.378Z,18944
2017-07-23T13:30:10.097Z,18112
2017-07-23T13:31:10.806Z,17440
2017-07-23T13:32:11.516Z,17920
2017-07-23T13:33:12.228Z,18208
2017-07-23T13:34:13.197Z,16832
2017-07-23T13:35:13.911Z,9060
2017-07-23T13:36:14.618Z,7560
2017-07-23T13:37:15.328Z,7140
2017-07-23T13:38:16.033Z,7140
2017-07-23T13:39:16.995Z,7400
2017-07-23T13:40:17.711Z,7080
2017-07-23T13:41:18.420Z,8636
2017-07-23T13:42:19.135Z,10008
2017-07-23T13:43:19.846Z,12276
2017-07-23T13:44:20.566Z,18656
2017-07-23T13:45:21.280Z,19168
2017-07-23T13:46:21.988Z,18016
2017-07-23T13:47:22.702Z,20352
2017-07-23T13:48:23.420Z,10792
2017-07-23T13:49:24.376Z,7348
2017-07-23T13:50:25.086Z,6456